createdAt,value
2023-05-05T00:00:25.005Z,23.03
2023-05-05T00:02:54.096Z,24.30
2023-05-05T00:05:24.148Z,20.53
2023-05-05T00:07:53.148Z,20.77
2023-05-05T00:10:22.370Z,23.27
2023-05-05T00:12:51.287Z,23.23
2023-05-05T00:15:20.296Z,22.20
2023-05-05T00:17:50.877Z,24.60
2023-05-05T00:20:38.569Z,22.73
2023-05-05T00:23:07.522Z,22.10
2023-05-05T00:25:54.963Z,22.03
2023-05-05T00:28:23.959Z,21.50
2023-05-05T00:30:52.915Z,22.80
2023-05-05T00:33:23.334Z,22.93
2023-05-05T00:35:52.529Z,24.67
2023-05-05T00:38:21.416Z,24.73
2023-05-05T00:40:50.321Z,25.60
2023-05-05T00:43:19.208Z,25.20
2023-05-05T00:45:48.892Z,25.40
2023-05-05T00:48:19.146Z,22.53
2023-05-05T00:50:49.668Z,21.83
2023-05-05T00:53:19.633Z,21.03
2023-05-05T00:55:48.714Z,23.13
2023-05-05T00:58:17.807Z,25.20
2023-05-05T01:00:47.197Z,34.27
2023-05-05T01:03:16.306Z,34.13
2023-05-05T01:06:00.182Z,33.43
2023-05-05T01:08:42.813Z,40.33
2023-05-05T01:11:18.827Z,57.17
2023-05-05T01:13:55.874Z,53.47
2023-05-05T01:16:28.885Z,52.37
2023-05-05T01:19:03.518Z,47.87
2023-05-05T01:21:40.090Z,40.47
2023-05-05T01:24:28.501Z,39.53
2023-05-05T01:27:20.731Z,38.00
2023-05-05T01:30:17.949Z,40.27
2023-05-05T01:32:52.259Z,41.63
2023-05-05T01:35:28.631Z,40.03
2023-05-05T01:38:04.483Z,47.57
2023-05-05T01:40:39.435Z,45.37
2023-05-05T01:43:10.853Z,40.90
2023-05-05T01:45:42.955Z,42.57
2023-05-05T01:48:16.804Z,43.57
2023-05-05T01:50:48.062Z,40.43
2023-05-05T01:53:19.689Z,40.27
2023-05-05T01:55:51.135Z,39.77
2023-05-05T01:58:21.608Z,37.67
2023-05-05T02:00:52.024Z,38.97
2023-05-05T02:03:24.251Z,39.60
2023-05-05T02:05:54.974Z,36.70
2023-05-05T02:08:25.070Z,41.10
2023-05-05T02:10:55.616Z,45.30
2023-05-05T02:13:26.369Z,49.17
2023-05-05T02:15:56.884Z,43.53
2023-05-05T02:18:48.885Z,41.10
2023-05-05T02:21:20.228Z,39.67
2023-05-05T02:23:52.122Z,38.67
2023-05-05T02:26:22.923Z,39.43
2023-05-05T02:29:19.395Z,38.43
2023-05-05T02:31:51.460Z,40.77
2023-05-05T02:34:28.931Z,41.03
2023-05-05T02:37:02.332Z,41.37
2023-05-05T02:39:40.243Z,45.30
2023-05-05T02:42:17.720Z,44.53
2023-05-05T02:44:48.722Z,42.10
2023-05-05T02:47:17.990Z,35.67
2023-05-05T02:49:48.542Z,33.83
2023-05-05T02:52:17.553Z,33.07
2023-05-05T02:54:47.190Z,33.83
2023-05-05T02:57:22.273Z,35.17
2023-05-05T03:00:07.055Z,32.03
2023-05-05T03:02:46.163Z,35.30
2023-05-05T03:05:23.862Z,32.10
2023-05-05T03:08:02.328Z,33.60
2023-05-05T03:10:58.361Z,38.93
2023-05-05T03:13:29.962Z,37.60
2023-05-05T03:16:06.784Z,36.43
2023-05-05T03:18:37.870Z,34.80
2023-05-05T03:21:09.392Z,35.47
2023-05-05T03:23:56.751Z,36.83
2023-05-05T03:26:25.861Z,43.93
2023-05-05T03:28:54.885Z,46.20
2023-05-05T03:31:29.767Z,52.50
2023-05-05T03:34:01.654Z,61.00
2023-05-05T03:36:37.820Z,61.13
2023-05-05T03:39:08.031Z,60.43
2023-05-05T03:41:37.252Z,64.43
2023-05-05T03:44:08.208Z,66.03
2023-05-05T03:46:39.260Z,65.53
2023-05-05T03:49:12.223Z,61.63
2023-05-05T03:52:01.183Z,60.10
2023-05-05T03:54:31.447Z,59.10
2023-05-05T03:57:00.756Z,58.27
2023-05-05T03:59:29.974Z,57.97
2023-05-05T04:01:59.145Z,60.03
2023-05-05T04:04:28.311Z,60.27
2023-05-05T04:06:57.714Z,64.30
2023-05-05T04:09:28.197Z,63.80
2023-05-05T04:12:16.037Z,60.37
2023-05-05T04:14:45.848Z,62.53
2023-05-05T04:17:15.952Z,63.40
2023-05-05T04:19:45.825Z,72.57
2023-05-05T04:22:15.094Z,63.80
2023-05-05T04:24:45.491Z,67.70
2023-05-05T04:27:14.766Z,64.40
2023-05-05T04:29:43.882Z,65.33
2023-05-05T04:32:13.327Z,64.47
2023-05-05T04:34:42.580Z,63.83
2023-05-05T04:37:12.204Z,69.60
2023-05-05T04:39:41.680Z,67.50
2023-05-05T04:42:12.682Z,65.00
2023-05-05T04:44:42.388Z,63.73
2023-05-05T04:47:14.492Z,65.67
2023-05-05T04:49:45.141Z,64.33
2023-05-05T04:52:14.798Z,65.80
2023-05-05T04:54:43.678Z,66.07
2023-05-05T04:57:14.203Z,66.63
2023-05-05T04:59:44.229Z,61.10
2023-05-05T05:02:13.295Z,60.43
2023-05-05T05:04:42.433Z,62.73
2023-05-05T05:07:11.487Z,57.83
2023-05-05T05:09:40.558Z,59.13
2023-05-05T05:12:09.957Z,56.30
2023-05-05T05:14:40.815Z,56.93
2023-05-05T05:17:30.253Z,50.60
2023-05-05T05:20:05.105Z,51.67
2023-05-05T05:22:38.575Z,51.17
2023-05-05T05:25:11.383Z,51.73
2023-05-05T05:27:41.913Z,49.87
2023-05-05T05:30:14.656Z,49.03
2023-05-05T05:32:44.040Z,48.30
2023-05-05T05:35:13.127Z,48.97
2023-05-05T05:37:42.084Z,47.53
2023-05-05T05:40:12.239Z,48.67
2023-05-05T05:42:42.166Z,48.30
2023-05-05T05:45:13.478Z,48.40
2023-05-05T05:47:43.030Z,48.17
2023-05-05T05:50:12.534Z,51.87
2023-05-05T05:52:41.842Z,50.30
2023-05-05T05:55:11.418Z,51.47
2023-05-05T05:57:41.303Z,53.50
2023-05-05T06:00:16.057Z,50.93
2023-05-05T06:02:55.497Z,52.20
2023-05-05T06:05:28.311Z,52.10
2023-05-05T06:07:57.432Z,46.60
2023-05-05T06:10:28.681Z,46.87
2023-05-05T06:13:11.155Z,46.00
2023-05-05T06:15:45.796Z,46.87
2023-05-05T06:18:16.236Z,46.67
2023-05-05T06:20:45.296Z,45.77
2023-05-05T06:23:16.869Z,47.27
2023-05-05T06:25:51.077Z,45.57
2023-05-05T06:28:20.417Z,44.47
2023-05-05T06:30:50.749Z,45.27
2023-05-05T06:33:19.797Z,43.93
2023-05-05T06:35:49.724Z,45.90
2023-05-05T06:38:18.824Z,44.20
2023-05-05T06:40:50.354Z,44.43
2023-05-05T06:43:19.696Z,45.57
2023-05-05T06:45:57.134Z,44.87
2023-05-05T06:48:26.208Z,46.10
2023-05-05T06:50:55.219Z,47.93
2023-05-05T06:53:24.132Z,48.33
2023-05-05T06:55:53.064Z,49.47
2023-05-05T06:58:22.587Z,49.80
2023-05-05T07:00:51.511Z,51.27
2023-05-05T07:03:21.987Z,53.27
2023-05-05T07:06:09.405Z,53.67
2023-05-05T07:08:38.399Z,54.07
2023-05-05T07:11:07.343Z,52.97
2023-05-05T07:13:55.125Z,50.37
2023-05-05T07:16:24.087Z,51.67
2023-05-05T07:18:54.732Z,54.63
2023-05-05T07:21:23.760Z,51.10
2023-05-05T07:23:52.620Z,51.90
2023-05-05T07:26:21.624Z,54.50
2023-05-05T07:28:52.158Z,59.27
2023-05-05T07:31:22.205Z,52.63
2023-05-05T07:33:51.240Z,54.53
2023-05-05T07:36:21.856Z,54.70
2023-05-05T07:38:50.754Z,53.07
2023-05-05T07:41:20.297Z,72.63
2023-05-05T07:43:49.390Z,65.93
2023-05-05T07:46:18.794Z,57.17
2023-05-05T07:48:47.771Z,60.43
2023-05-05T07:51:16.856Z,62.37
2023-05-05T07:53:47.416Z,58.13
2023-05-05T07:56:16.305Z,53.57
2023-05-05T07:58:45.392Z,44.77
2023-05-05T08:01:14.319Z,41.10
2023-05-05T08:03:43.498Z,42.87
2023-05-05T08:06:13.019Z,44.90
2023-05-05T08:08:42.069Z,43.03
2023-05-05T08:11:12.744Z,42.57
2023-05-05T08:13:43.178Z,42.40
2023-05-05T08:16:12.425Z,43.00
2023-05-05T08:18:41.587Z,44.80
2023-05-05T08:21:11.452Z,46.73
2023-05-05T08:23:40.897Z,48.57
2023-05-05T08:26:09.841Z,43.80
2023-05-05T08:28:40.487Z,40.03
2023-05-05T08:31:09.754Z,44.00
2023-05-05T08:33:38.670Z,41.30
2023-05-05T08:36:09.209Z,36.83
2023-05-05T08:38:38.411Z,40.07
2023-05-05T08:41:09.859Z,36.60
2023-05-05T08:43:41.449Z,36.10
2023-05-05T08:46:13.552Z,36.27
2023-05-05T08:48:45.127Z,43.00
2023-05-05T08:51:19.173Z,41.90
2023-05-05T08:53:57.564Z,39.77
2023-05-05T08:56:49.454Z,42.03
2023-05-05T08:59:35.005Z,40.60
2023-05-05T09:02:16.408Z,40.60
2023-05-05T09:04:52.972Z,40.73
2023-05-05T09:07:38.865Z,39.60
2023-05-05T09:10:23.726Z,39.20
2023-05-05T09:13:13.011Z,37.27
2023-05-05T09:15:51.486Z,38.70
2023-05-05T09:18:22.538Z,39.23
2023-05-05T09:20:59.587Z,36.87
2023-05-05T09:23:28.989Z,36.40
2023-05-05T09:26:09.077Z,38.43
2023-05-05T09:28:38.842Z,36.63
2023-05-05T09:31:16.882Z,35.23
2023-05-05T09:33:45.989Z,35.10
2023-05-05T09:36:14.889Z,36.23
2023-05-05T09:38:43.845Z,35.93
2023-05-05T09:41:12.875Z,34.93
2023-05-05T09:43:52.747Z,35.83
2023-05-05T09:46:23.636Z,35.57
2023-05-05T09:48:52.904Z,36.03
2023-05-05T09:51:32.227Z,38.80
2023-05-05T09:54:01.322Z,37.70
2023-05-05T09:56:39.876Z,37.90
2023-05-05T09:59:12.495Z,72.83
2023-05-05T10:01:44.103Z,39.33
2023-05-05T10:04:26.241Z,40.97
2023-05-05T10:06:56.358Z,63.30
2023-05-05T10:09:25.582Z,59.70
2023-05-05T10:11:54.955Z,51.60
2023-05-05T10:14:25.860Z,48.97
2023-05-05T10:16:57.274Z,55.27
2023-05-05T10:19:29.309Z,38.70
2023-05-05T10:22:04.920Z,38.50
2023-05-05T10:24:40.430Z,25.77
2023-05-05T10:27:21.802Z,29.83
2023-05-05T10:29:58.951Z,33.30
2023-05-05T10:35:17.330Z,48.97
2023-05-05T10:37:48.099Z,32.57
2023-05-05T10:40:18.062Z,33.80
2023-05-05T10:42:52.080Z,59.40
2023-05-05T10:45:29.415Z,64.00
2023-05-05T10:48:09.478Z,78.27
2023-05-05T10:50:46.295Z,75.20
2023-05-05T10:53:20.514Z,88.47
2023-05-05T10:55:56.455Z,88.10
2023-05-05T10:58:46.839Z,25.40
2023-05-05T11:01:32.605Z,20.57
2023-05-05T11:04:23.185Z,20.13
2023-05-05T11:07:24.205Z,47.00
2023-05-05T11:10:01.687Z,24.10
2023-05-05T11:12:31.419Z,18.30
2023-05-05T11:15:37.920Z,17.97
2023-05-05T11:18:08.629Z,29.20
2023-05-05T11:21:15.419Z,31.87
2023-05-05T11:23:46.932Z,39.30
2023-05-05T11:26:16.805Z,18.83
2023-05-05T11:29:02.972Z,16.00
2023-05-05T11:31:33.551Z,16.87
2023-05-05T11:34:28.510Z,18.10
2023-05-05T11:37:04.408Z,21.53
2023-05-05T11:39:53.428Z,19.97
2023-05-05T11:42:26.900Z,17.47
2023-05-05T11:44:59.373Z,20.77
2023-05-05T11:47:34.750Z,17.10
2023-05-05T11:50:19.263Z,18.60
2023-05-05T11:52:57.782Z,19.23
2023-05-05T11:55:27.606Z,18.43
2023-05-05T11:58:04.833Z,24.30
2023-05-05T12:00:35.259Z,18.27
2023-05-05T12:03:05.380Z,18.07
2023-05-05T12:05:36.420Z,19.33
2023-05-05T12:08:07.668Z,20.57
2023-05-05T12:10:36.999Z,20.47
2023-05-05T12:13:06.524Z,19.73
2023-05-05T12:15:35.889Z,18.90
2023-05-05T12:18:06.199Z,20.90
2023-05-05T12:20:36.784Z,20.73
2023-05-05T12:23:08.327Z,22.60
2023-05-05T12:25:39.168Z,21.47
2023-05-05T12:28:09.313Z,29.47
2023-05-05T12:30:38.441Z,24.03
2023-05-05T12:33:08.503Z,22.00
2023-05-05T12:35:38.032Z,21.03
2023-05-05T12:38:26.791Z,21.67
2023-05-05T12:40:56.121Z,22.57
2023-05-05T12:43:29.925Z,20.83
2023-05-05T12:46:09.782Z,29.50
2023-05-05T12:48:40.445Z,21.43
2023-05-05T12:51:20.979Z,22.33
2023-05-05T12:54:05.034Z,21.10
2023-05-05T12:56:35.566Z,20.87
2023-05-05T12:59:06.151Z,19.63
2023-05-05T13:01:35.627Z,21.70
2023-05-05T13:04:13.835Z,19.67
2023-05-05T13:06:44.382Z,19.30
2023-05-05T13:09:26.673Z,23.77
2023-05-05T13:11:56.770Z,21.17
2023-05-05T13:14:25.959Z,19.97
2023-05-05T13:16:55.026Z,21.50
2023-05-05T13:19:25.224Z,21.40
2023-05-05T13:21:54.926Z,19.97
2023-05-05T13:24:42.369Z,21.93
2023-05-05T13:27:15.425Z,19.50
2023-05-05T13:29:44.232Z,20.27
2023-05-05T13:32:13.123Z,25.97
2023-05-05T13:34:42.748Z,22.50
2023-05-05T13:37:11.577Z,23.23
2023-05-05T13:39:42.051Z,31.73
2023-05-05T13:42:10.954Z,27.10
2023-05-05T13:44:39.952Z,21.83
2023-05-05T13:47:09.120Z,22.67
2023-05-05T13:49:38.173Z,31.23
2023-05-05T13:52:07.295Z,30.93
2023-05-05T13:54:37.002Z,28.23
2023-05-05T13:57:08.204Z,100.17
2023-05-05T13:59:37.138Z,109.13
2023-05-05T14:02:06.368Z,140.10
2023-05-05T14:04:35.512Z,136.70
2023-05-05T14:07:04.992Z,112.03
2023-05-05T14:09:34.460Z,56.20
2023-05-05T14:12:03.742Z,113.53
2023-05-05T14:14:34.564Z,35.87
2023-05-05T14:17:03.764Z,25.97
2023-05-05T14:19:32.715Z,23.90
2023-05-05T14:22:01.689Z,22.97
2023-05-05T14:24:31.252Z,25.10
2023-05-05T14:27:00.607Z,24.17
2023-05-05T14:29:29.904Z,24.77
2023-05-05T14:32:00.497Z,23.83
2023-05-05T14:34:29.637Z,24.73
2023-05-05T14:36:59.206Z,24.17
2023-05-05T14:39:28.324Z,25.43
2023-05-05T14:41:57.308Z,28.07
2023-05-05T14:44:26.258Z,33.53
2023-05-05T14:46:55.328Z,128.03
2023-05-05T14:49:25.694Z,113.33
2023-05-05T14:51:56.168Z,61.93
2023-05-05T14:54:28.689Z,37.93
2023-05-05T14:56:58.560Z,36.30
2023-05-05T14:59:27.955Z,76.63
2023-05-05T15:01:57.363Z,57.00
2023-05-05T15:04:27.720Z,28.70
2023-05-05T15:06:56.847Z,30.17
2023-05-05T15:09:25.905Z,31.57
2023-05-05T15:11:54.748Z,32.43
2023-05-05T15:14:23.828Z,33.53
2023-05-05T15:16:52.950Z,45.87
2023-05-05T15:19:22.021Z,48.53
2023-05-05T15:21:54.296Z,107.63
2023-05-05T15:24:23.316Z,108.87
2023-05-05T15:26:52.189Z,83.13
2023-05-05T15:29:21.523Z,47.33
2023-05-05T15:31:50.534Z,40.33
2023-05-05T15:34:19.473Z,35.90
2023-05-05T15:36:48.516Z,34.13
2023-05-05T15:39:19.014Z,35.63
2023-05-05T15:41:48.085Z,40.90
2023-05-05T15:44:17.045Z,39.03
2023-05-05T15:46:46.742Z,37.93
2023-05-05T15:49:16.860Z,36.07
2023-05-05T15:51:45.808Z,43.03
2023-05-05T15:54:14.673Z,119.23
2023-05-05T15:56:45.146Z,54.07
2023-05-05T15:59:14.164Z,44.87
2023-05-05T16:01:43.061Z,108.00
2023-05-05T16:04:12.301Z,87.23
2023-05-05T16:06:41.383Z,39.10
2023-05-05T16:09:10.323Z,65.83
2023-05-05T16:11:39.285Z,55.13
2023-05-05T16:14:09.767Z,59.57
2023-05-05T16:16:39.773Z,64.80
2023-05-05T16:19:08.917Z,51.57
2023-05-05T16:21:37.823Z,56.37
2023-05-05T16:24:07.186Z,36.60
2023-05-05T16:26:37.092Z,46.03
2023-05-05T16:29:06.050Z,53.83
2023-05-05T16:31:36.453Z,85.57
2023-05-05T16:34:23.821Z,115.97
2023-05-05T16:36:53.571Z,124.93
2023-05-05T16:39:22.711Z,125.60
2023-05-05T16:41:51.621Z,66.33
2023-05-05T16:44:22.130Z,54.20
2023-05-05T16:46:54.001Z,25.07
2023-05-05T16:49:24.900Z,21.87
2023-05-05T16:51:54.011Z,20.43
2023-05-05T16:54:27.925Z,20.00
2023-05-05T16:56:56.894Z,19.57
2023-05-05T16:59:25.959Z,18.97
2023-05-05T17:01:57.454Z,20.23
2023-05-05T17:04:26.540Z,20.30
2023-05-05T17:06:56.469Z,21.53
2023-05-05T17:09:26.247Z,20.93
2023-05-05T17:11:55.091Z,20.97
2023-05-05T17:14:24.596Z,21.23
2023-05-05T17:16:54.623Z,21.03
2023-05-05T17:19:25.072Z,21.07
2023-05-05T17:21:55.067Z,20.50
2023-05-05T17:24:24.230Z,24.47
2023-05-05T17:26:53.048Z,27.67
2023-05-05T17:29:23.431Z,31.10
2023-05-05T17:31:52.547Z,32.77
2023-05-05T17:34:21.465Z,41.33
2023-05-05T17:36:53.050Z,42.50
2023-05-05T17:39:23.408Z,44.07
2023-05-05T17:41:53.045Z,44.77
2023-05-05T17:44:34.719Z,41.93
2023-05-05T17:47:04.276Z,31.60
2023-05-05T17:49:33.218Z,25.33
2023-05-05T17:52:03.511Z,26.07
2023-05-05T17:54:32.431Z,24.60
2023-05-05T17:57:01.614Z,25.30
2023-05-05T17:59:30.491Z,24.77
2023-05-05T18:01:59.632Z,24.60
2023-05-05T18:04:28.584Z,24.10
2023-05-05T18:06:58.888Z,23.50
2023-05-05T18:09:29.269Z,25.40
2023-05-05T18:11:58.498Z,26.33
2023-05-05T18:14:27.442Z,26.93
2023-05-05T18:16:56.501Z,29.27
2023-05-05T18:19:25.890Z,29.70
2023-05-05T18:21:55.668Z,30.07
2023-05-05T18:24:25.117Z,31.40
2023-05-05T18:26:55.410Z,31.00
2023-05-05T18:29:24.581Z,32.03
2023-05-05T18:31:55.558Z,30.87
2023-05-05T18:34:24.891Z,29.87
2023-05-05T18:36:54.704Z,27.67
2023-05-05T18:39:23.686Z,28.50
2023-05-05T18:41:52.842Z,26.97
2023-05-05T18:44:23.398Z,27.17
2023-05-05T18:46:52.501Z,27.60
2023-05-05T18:49:22.092Z,27.57
2023-05-05T18:51:51.164Z,26.53
2023-05-05T18:54:21.312Z,26.93
2023-05-05T18:56:50.547Z,25.40
2023-05-05T18:59:19.568Z,25.63
2023-05-05T19:01:50.630Z,25.00
2023-05-05T19:04:30.700Z,24.87
2023-05-05T19:07:01.209Z,26.10
2023-05-05T19:09:31.345Z,26.30
2023-05-05T19:12:00.734Z,26.23
2023-05-05T19:14:30.199Z,24.63
2023-05-05T19:17:01.841Z,24.60
2023-05-05T19:19:30.926Z,25.30
2023-05-05T19:22:02.900Z,25.90
2023-05-05T19:24:35.644Z,29.43
2023-05-05T19:27:04.972Z,30.17
2023-05-05T19:29:34.280Z,28.77
2023-05-05T19:32:05.136Z,29.90
2023-05-05T19:34:34.509Z,30.13
2023-05-05T19:37:03.428Z,29.33
2023-05-05T19:39:32.560Z,30.87
2023-05-05T19:42:01.598Z,30.50
2023-05-05T19:44:30.502Z,32.20
2023-05-05T19:46:59.505Z,32.67
2023-05-05T19:49:30.271Z,31.93
2023-05-05T19:51:59.421Z,33.67
2023-05-05T19:54:28.945Z,33.53
2023-05-05T19:57:01.270Z,32.53
2023-05-05T19:59:30.227Z,34.80
2023-05-05T20:01:59.275Z,35.50
2023-05-05T20:04:29.754Z,36.77
2023-05-05T20:06:59.793Z,37.50
2023-05-05T20:09:29.035Z,37.67
2023-05-05T20:11:59.850Z,37.33
2023-05-05T20:14:28.730Z,40.10
2023-05-05T20:16:57.786Z,39.53
2023-05-05T20:19:29.499Z,38.00
2023-05-05T20:21:59.892Z,38.73
2023-05-05T20:24:29.721Z,39.17
2023-05-05T20:26:58.621Z,39.43
2023-05-05T20:29:27.649Z,39.53
2023-05-05T20:31:56.526Z,39.97
2023-05-05T20:34:26.197Z,40.43
2023-05-05T20:36:55.723Z,38.07
2023-05-05T20:39:26.180Z,42.27
2023-05-05T20:41:55.123Z,40.63
2023-05-05T20:44:23.954Z,39.77
2023-05-05T20:46:52.855Z,41.10
2023-05-05T20:49:21.928Z,37.93
2023-05-05T20:51:51.108Z,39.93
2023-05-05T20:54:19.980Z,36.67
2023-05-05T20:56:51.014Z,36.73
2023-05-05T20:59:20.075Z,34.70
2023-05-05T21:01:49.113Z,36.47
2023-05-05T21:04:18.127Z,38.17
2023-05-05T21:06:48.262Z,36.03
2023-05-05T21:09:18.083Z,37.17
2023-05-05T21:11:47.569Z,35.73
2023-05-05T21:14:18.032Z,38.70
2023-05-05T21:16:48.423Z,37.60
2023-05-05T21:19:17.796Z,35.70
2023-05-05T21:21:46.983Z,34.43
2023-05-05T21:24:19.956Z,36.90
2023-05-05T21:26:49.125Z,36.40
2023-05-05T21:29:19.772Z,35.60
2023-05-05T21:31:49.566Z,35.00
2023-05-05T21:34:19.221Z,38.90
2023-05-05T21:36:48.193Z,35.43
2023-05-05T21:39:17.501Z,38.93
2023-05-05T21:41:46.471Z,33.93
2023-05-05T21:44:45.546Z,34.57
2023-05-05T21:47:24.211Z,34.97
2023-05-05T21:49:53.388Z,32.47
2023-05-05T21:52:22.331Z,32.03
2023-05-05T21:54:51.512Z,34.53
2023-05-05T21:57:21.743Z,41.50
2023-05-05T21:59:52.845Z,44.40
2023-05-05T22:02:27.910Z,45.60
2023-05-05T22:04:57.392Z,45.27
2023-05-05T22:07:26.336Z,44.97
2023-05-05T22:09:55.212Z,43.53
2023-05-05T22:12:24.035Z,48.77
2023-05-05T22:14:54.529Z,50.40
2023-05-05T22:17:24.069Z,38.17
2023-05-05T22:19:56.774Z,32.63
2023-05-05T22:22:27.322Z,31.23
2023-05-05T22:25:01.393Z,30.80
2023-05-05T22:27:31.253Z,30.40
2023-05-05T22:30:01.670Z,30.73
2023-05-05T22:32:30.620Z,30.60
2023-05-05T22:35:19.471Z,32.17
2023-05-05T22:37:49.165Z,32.93
2023-05-05T22:40:19.421Z,33.70
2023-05-05T22:42:48.591Z,34.13
2023-05-05T22:45:19.234Z,33.90
2023-05-05T22:47:48.143Z,32.93
2023-05-05T22:50:17.165Z,33.40
2023-05-05T22:52:46.111Z,33.87
2023-05-05T22:55:15.458Z,32.83
2023-05-05T22:57:44.588Z,34.23
2023-05-05T23:00:14.800Z,34.53
2023-05-05T23:02:45.185Z,36.23
2023-05-05T23:05:34.589Z,36.53
2023-05-05T23:08:03.725Z,35.63
2023-05-05T23:10:32.794Z,36.63
2023-05-05T23:13:01.664Z,35.27
2023-05-05T23:15:31.161Z,38.30
2023-05-05T23:18:01.648Z,40.00
2023-05-05T23:20:30.971Z,39.57
2023-05-05T23:23:00.142Z,38.67
2023-05-05T23:25:29.060Z,39.63
2023-05-05T23:27:58.158Z,40.00
2023-05-05T23:30:27.009Z,38.50
2023-05-05T23:32:57.651Z,36.60
2023-05-05T23:35:28.102Z,37.67
2023-05-05T23:37:57.107Z,35.03
2023-05-05T23:40:26.073Z,36.40
2023-05-05T23:42:54.964Z,37.87
2023-05-05T23:45:23.920Z,37.67
2023-05-05T23:47:53.034Z,38.17
2023-05-05T23:50:22.189Z,38.07
2023-05-05T23:52:52.587Z,38.60
2023-05-05T23:55:21.726Z,39.90
2023-05-05T23:57:51.722Z,40.97
